Time;durP1;ratioP1;P1;durP2;ratioP2;P2;SDS_P1;SDS_P2;PMS_P1;PMS_P2;Temp;Humidity;BMP_temperature;BMP_pressure;BME280_temperature;BME280_humidity;BME280_pressure;Samples;Min_cycle;Max_cycle;Signal;HPM_P1;HPM_P2
2021/12/02 00:00:44;;;;;;;22.20;11.00;;;;;;;7.51;65.41;100420.16;5076099;28;20473;-82
2021/12/02 00:03:10;;;;;;;26.88;13.02;;;;;;;7.45;65.58;100401.88;5076242;28;20063;-82
2021/12/02 00:05:36;;;;;;;31.13;14.23;;;;;;;7.42;64.71;100396.75;5075723;28;20095;-83
2021/12/02 00:08:01;;;;;;;24.08;10.13;;;;;;;7.53;64.62;100411.06;5075325;28;20136;-84
2021/12/02 00:10:31;;;;;;;22.83;10.50;;;;;;;7.46;64.66;100409.78;5075286;28;20064;-83
2021/12/02 00:12:58;;;;;;;22.42;11.32;;;;;;;7.53;64.82;100412.88;5075621;28;20020;-81
2021/12/02 00:15:32;;;;;;;20.92;10.88;;;;;;;7.39;64.62;100388.94;5075530;28;20033;-82
2021/12/02 00:21:02;;;;;;;19.90;8.90;;;;;;;7.48;65.10;100407.88;5075048;28;20024;-82
2021/12/02 00:21:03;;;;;;;18.35;9.75;;;;;;;7.42;65.34;100400.28;5074790;28;20450;-82
2021/12/02 00:23:50;;;;;;;22.50;8.85;;;;;;;7.30;65.10;100374.41;5075352;28;20127;-83
2021/12/02 00:26:18;;;;;;;14.27;7.55;;;;;;;7.57;64.77;100404.53;5058406;28;20107;-82
2021/12/02 00:28:44;;;;;;;26.13;9.80;;;;;;;7.62;64.52;100405.03;5075418;28;20086;-82
2021/12/02 00:31:19;;;;;;;28.85;13.35;;;;;;;7.67;64.31;100412.75;5075421;28;20045;-82
2021/12/02 00:33:47;;;;;;;29.83;10.38;;;;;;;7.64;63.74;100397.72;5075914;28;20024;-82
2021/12/02 00:36:14;;;;;;;24.63;8.93;;;;;;;7.47;64.38;100379.38;5076080;28;20431;-81
2021/12/02 00:38:42;;;;;;;18.02;8.63;;;;;;;7.53;64.69;100389.66;5078266;28;20020;-83
2021/12/02 00:41:12;;;;;;;20.02;7.53;;;;;;;7.26;64.91;100382.75;5084113;28;20454;-82
2021/12/02 00:43:39;;;;;;;18.23;8.02;;;;;;;7.46;64.56;100396.41;5084184;28;20162;-81
2021/12/02 00:46:08;;;;;;;9.60;5.65;;;;;;;7.41;64.45;100376.28;5083905;28;20083;-82
2021/12/02 00:48:35;;;;;;;12.95;6.50;;;;;;;7.59;64.30;100397.22;5087143;28;20064;-81
2021/12/02 00:51:01;;;;;;;13.30;6.55;;;;;;;7.69;64.07;100402.75;5080360;28;20042;-83
2021/12/02 00:53:28;;;;;;;13.70;6.53;;;;;;;7.62;64.06;100399.69;5078605;28;20028;-83
2021/12/02 00:55:54;;;;;;;14.88;6.50;;;;;;;7.68;64.00;100399.22;5074910;28;20070;-82
2021/12/02 00:58:23;;;;;;;15.23;6.75;;;;;;;7.81;64.04;100392.97;5057699;28;20021;-82
2021/12/02 01:00:51;;;;;;;18.83;7.22;;;;;;;7.86;63.71;100388.16;5075325;28;20052;-82
2021/12/02 01:03:18;;;;;;;13.82;6.88;;;;;;;7.87;63.58;100377.31;5075283;28;20082;-83
2021/12/02 01:05:44;;;;;;;15.02;6.90;;;;;;;8.06;63.23;100398.22;5075140;28;20549;-82
2021/12/02 01:08:10;;;;;;;19.08;6.72;;;;;;;8.10;62.82;100397.03;5074238;28;20079;-81
2021/12/02 01:10:36;;;;;;;11.18;6.45;;;;;;;8.19;62.33;100391.00;5075026;28;20379;-81
2021/12/02 01:13:02;;;;;;;13.25;7.00;;;;;;;8.15;62.19;100386.81;5074409;28;20031;-82
2021/12/02 01:15:27;;;;;;;15.50;7.93;;;;;;;8.21;62.18;100386.38;5056570;28;20059;-81
2021/12/02 01:17:53;;;;;;;12.43;6.15;;;;;;;8.31;62.17;100390.09;5074594;28;20450;-81
2021/12/02 01:20:19;;;;;;;16.73;7.97;;;;;;;8.30;61.89;100380.34;5074377;28;20085;-82
2021/12/02 01:22:47;;;;;;;13.80;6.50;;;;;;;8.20;61.37;100349.81;5074484;28;20021;-82
2021/12/02 01:25:17;;;;;;;11.65;6.57;;;;;;;8.10;61.56;100335.44;5074569;28;20033;-81
2021/12/02 01:27:47;;;;;;;28.80;12.65;;;;;;;8.10;61.83;100356.88;5074872;28;20032;-83
2021/12/02 01:30:13;;;;;;;13.60;6.50;;;;;;;8.22;62.09;100355.94;5073416;28;20570;-82
2021/12/02 01:32:40;;;;;;;6.57;4.65;;;;;;;8.27;61.55;100348.41;5073842;28;20052;-82
2021/12/02 01:35:06;;;;;;;10.63;4.40;;;;;;;8.30;61.18;100348.19;5074120;28;20016;-81
2021/12/02 01:37:32;;;;;;;7.05;4.10;;;;;;;8.37;61.04;100343.22;5074699;28;20027;-81
2021/12/02 01:39:58;;;;;;;6.22;4.53;;;;;;;8.45;61.33;100338.97;5074434;28;20028;-82
2021/12/02 01:42:26;;;;;;;6.35;3.78;;;;;;;8.51;60.63;100341.19;5073893;28;20086;-83
2021/12/02 01:44:53;;;;;;;5.82;4.15;;;;;;;8.57;60.39;100339.84;5076356;28;20030;-83
2021/12/02 01:47:23;;;;;;;8.73;4.80;;;;;;;8.54;60.85;100327.53;5073977;28;20078;-83
2021/12/02 01:49:53;;;;;;;11.18;6.60;;;;;;;8.64;60.10;100346.44;5074206;28;20029;-82
2021/12/02 01:52:25;;;;;;;17.75;8.02;;;;;;;8.51;60.30;100325.09;5073952;28;20017;-83
2021/12/02 01:54:54;;;;;;;19.98;8.23;;;;;;;8.49;60.88;100332.41;5089165;28;20036;-82
2021/12/02 01:57:32;;;;;;;19.73;9.35;;;;;;;8.46;60.73;100348.72;5073856;28;20028;-82
2021/12/02 02:00:10;;;;;;;20.58;9.93;;;;;;;8.48;60.98;100341.41;5073712;28;20489;-82
2021/12/02 02:02:37;;;;;;;18.42;7.88;;;;;;;8.46;60.68;100342.50;5055691;28;20024;-82
2021/12/02 02:05:06;;;;;;;19.05;7.70;;;;;;;8.45;61.29;100347.00;5055237;28;20039;-82
2021/12/02 02:07:33;;;;;;;18.17;10.85;;;;;;;8.43;60.91;100338.25;5074014;28;20052;-82
2021/12/02 02:09:59;;;;;;;28.90;12.35;;;;;;;8.36;61.05;100326.28;5073455;28;20055;-83
2021/12/02 02:12:25;;;;;;;32.38;11.45;;;;;;;8.36;61.31;100337.00;5073673;28;20020;-82
2021/12/02 02:14:52;;;;;;;27.45;11.85;;;;;;;8.30;60.84;100337.47;5073540;28;20051;-82
2021/12/02 02:17:30;;;;;;;24.83;10.75;;;;;;;8.28;61.51;100344.78;5080698;28;20020;-82
2021/12/02 02:19:56;;;;;;;16.92;10.45;;;;;;;8.07;61.40;100309.72;5083816;28;20032;-82
2021/12/02 02:22:23;;;;;;;19.55;11.00;;;;;;;8.06;61.94;100339.31;5084946;28;20059;-82
2021/12/02 02:24:50;;;;;;;21.88;10.60;;;;;;;8.03;62.14;100335.03;5079430;28;20059;-82
2021/12/02 02:27:16;;;;;;;21.90;9.63;;;;;;;8.02;62.55;100341.34;5056385;28;20040;-82
2021/12/02 02:29:42;;;;;;;18.40;9.13;;;;;;;8.01;62.50;100345.00;5055549;28;20028;-82
2021/12/02 02:32:08;;;;;;;22.50;11.60;;;;;;;7.84;61.88;100326.69;5058080;28;20194;-82
2021/12/02 02:34:33;;;;;;;20.27;10.50;;;;;;;7.87;62.42;100325.59;5058235;28;20056;-82
2021/12/02 02:37:03;;;;;;;24.77;12.82;;;;;;;7.89;62.71;100345.09;5073493;28;20379;-82
2021/12/02 02:39:30;;;;;;;29.92;13.73;;;;;;;7.87;62.30;100357.72;5055595;28;20360;-82
2021/12/02 02:42:01;;;;;;;34.38;15.90;;;;;;;7.74;62.86;100340.84;5072754;28;20024;-82
2021/12/02 02:44:28;;;;;;;26.50;11.50;;;;;;;7.64;62.93;100338.84;5073208;28;20024;-83
2021/12/02 02:46:54;;;;;;;29.30;13.20;;;;;;;7.67;63.33;100360.03;5073544;28;20419;-82
2021/12/02 02:49:21;;;;;;;32.55;15.55;;;;;;;7.59;63.21;100350.88;5073910;28;20059;-82
2021/12/02 02:51:47;;;;;;;31.13;14.43;;;;;;;7.68;63.51;100366.25;5072805;28;20035;-82
2021/12/02 02:54:16;;;;;;;30.35;14.75;;;;;;;7.64;64.09;100354.91;5073158;28;20036;-83
2021/12/02 02:56:49;;;;;;;28.23;14.13;;;;;;;7.53;64.00;100352.19;5073238;28;20460;-81
2021/12/02 03:00:09;;;;;;;24.58;13.88;;;;;;;7.41;63.66;100363.78;5073396;28;20036;-81
2021/12/02 03:07:59;;;;;;;32.53;12.48;;;;;;;7.10;65.15;100326.84;4992853;28;20026;-82
2021/12/02 03:10:58;;;;;;;26.65;12.88;;;;;;;7.21;65.40;100329.59;5061938;28;20044;-82
2021/12/02 03:18:27;;;;;;;22.67;12.00;;;;;;;7.28;65.23;100317.47;5093188;28;20089;-82
2021/12/02 03:20:52;;;;;;;27.90;11.88;;;;;;;7.33;64.86;100328.72;5097901;28;20024;-83
2021/12/02 03:23:18;;;;;;;27.88;12.25;;;;;;;7.38;64.67;100321.19;5101842;28;20103;-81
2021/12/02 03:25:43;;;;;;;27.00;13.32;;;;;;;7.39;64.20;100341.66;5100353;28;20048;-82
2021/12/02 03:28:09;;;;;;;20.02;11.80;;;;;;;7.17;64.52;100321.91;5093278;28;20476;-82
2021/12/02 03:30:35;;;;;;;25.98;12.13;;;;;;;7.38;64.56;100347.09;5093629;28;20039;-83
2021/12/02 03:33:00;;;;;;;21.13;12.30;;;;;;;7.30;64.68;100345.00;5092921;28;20067;-82
2021/12/02 03:35:26;;;;;;;26.90;14.18;;;;;;;7.03;64.52;100344.31;5092857;28;20024;-81
2021/12/02 03:37:51;;;;;;;19.77;12.02;;;;;;;7.13;65.39;100339.97;5092678;28;20058;-82
2021/12/02 03:40:17;;;;;;;30.02;12.98;;;;;;;7.06;64.55;100310.16;5092852;28;20089;-82
2021/12/02 03:42:52;;;;;;;35.92;12.25;;;;;;;7.25;64.74;100331.06;5093020;28;20023;-82
2021/12/02 03:45:18;;;;;;;23.73;12.80;;;;;;;7.26;64.54;100321.22;5106828;28;20485;-81
2021/12/02 03:47:44;;;;;;;17.42;10.70;;;;;;;7.15;64.41;100305.97;5105462;28;20038;-80
2021/12/02 03:50:10;;;;;;;22.52;11.70;;;;;;;7.23;64.92;100322.31;5106894;28;20047;-80
2021/12/02 03:52:36;;;;;;;28.25;11.18;;;;;;;7.05;64.45;100297.75;5099948;28;20098;-81
2021/12/02 03:55:03;;;;;;;19.75;10.93;;;;;;;7.15;64.78;100311.34;5077659;28;20013;-82
2021/12/02 03:57:32;;;;;;;24.00;10.00;;;;;;;7.08;64.24;100302.03;5077174;28;20020;-83
2021/12/02 03:59:59;;;;;;;29.40;9.50;;;;;;;7.02;64.63;100310.50;5089208;28;20124;-86
2021/12/02 04:02:25;;;;;;;16.60;10.07;;;;;;;6.94;64.37;100296.84;5100978;28;20024;-85
2021/12/02 04:04:50;;;;;;;18.77;9.10;;;;;;;7.11;64.64;100312.50;5081491;28;20016;-86
2021/12/02 04:07:23;;;;;;;18.17;9.52;;;;;;;7.25;64.01;100325.72;5076865;28;20063;-85
2021/12/02 04:09:49;;;;;;;13.10;7.78;;;;;;;7.39;63.83;100325.59;5086557;28;20048;-88
2021/12/02 04:15:05;;;;;;;16.90;8.75;;;;;;;7.59;64.04;100324.09;5076067;28;20036;-87
2021/12/02 04:17:43;;;;;;;29.73;11.70;;;;;;;7.60;62.77;100304.41;5072193;28;20024;-87
2021/12/02 04:20:13;;;;;;;22.42;10.88;;;;;;;7.82;62.41;100330.44;5074221;28;20077;-86
2021/12/02 04:22:39;;;;;;;18.40;9.82;;;;;;;7.82;62.09;100314.38;5075717;28;20391;-83
2021/12/02 04:25:06;;;;;;;21.92;9.15;;;;;;;7.97;62.19;100329.28;5075764;28;20510;-79
2021/12/02 04:27:31;;;;;;;20.55;8.63;;;;;;;7.98;61.49;100314.94;5057684;28;20555;-83
2021/12/02 04:29:57;;;;;;;21.15;9.60;;;;;;;7.98;61.48;100312.28;5075646;28;20024;-83
2021/12/02 04:32:22;;;;;;;36.45;14.70;;;;;;;8.08;61.36;100321.28;5075747;28;20039;-84
2021/12/02 04:34:48;;;;;;;33.97;17.42;;;;;;;8.01;60.87;100328.09;5075927;28;20021;-83
2021/12/02 04:37:13;;;;;;;35.00;15.77;;;;;;;7.76;61.64;100314.84;5075453;28;20469;-83
2021/12/02 04:39:39;;;;;;;36.85;16.90;;;;;;;7.66;62.63;100336.09;5075837;28;20028;-85
2021/12/02 04:42:04;;;;;;;41.78;15.60;;;;;;;7.68;63.24;100335.00;5075624;28;20099;-82
2021/12/02 04:44:30;;;;;;;35.75;17.40;;;;;;;7.53;62.82;100329.91;5086973;28;20028;-83
2021/12/02 04:46:55;;;;;;;33.17;18.10;;;;;;;7.46;63.33;100302.75;5096311;28;20036;-83
2021/12/02 04:49:21;;;;;;;51.90;20.58;;;;;;;7.59;63.17;100324.97;5094915;28;20016;-87
2021/12/02 04:51:47;;;;;;;49.17;24.20;;;;;;;7.58;63.26;100317.91;5095048;28;20032;-81
2021/12/02 04:54:12;;;;;;;50.78;23.67;;;;;;;7.63;63.27;100325.59;5095404;28;20485;-81
2021/12/02 04:56:38;;;;;;;42.50;19.92;;;;;;;7.62;63.24;100300.66;5095314;28;20024;-82
2021/12/02 04:59:03;;;;;;;38.28;17.88;;;;;;;7.41;62.42;100298.72;5095209;28;20051;-82
2021/12/02 05:01:29;;;;;;;37.08;16.35;;;;;;;7.31;62.80;100287.81;5095219;28;20036;-82
2021/12/02 05:03:56;;;;;;;37.03;15.45;;;;;;;7.40;63.05;100300.53;5094748;28;20051;-81
2021/12/02 05:06:21;;;;;;;44.78;15.20;;;;;;;7.50;62.20;100312.28;5095390;28;20032;-81
2021/12/02 05:08:47;;;;;;;33.75;15.25;;;;;;;7.40;62.03;100303.19;5094770;28;20098;-82
2021/12/02 05:11:12;;;;;;;42.83;18.45;;;;;;;7.44;62.90;100302.03;5095252;28;20428;-82
2021/12/02 05:13:38;;;;;;;98.28;47.78;;;;;;;7.47;62.43;100312.50;5094868;28;20055;-82
2021/12/02 05:16:03;;;;;;;75.95;34.33;;;;;;;7.44;62.58;100310.03;5100446;28;20073;-81
2021/12/02 05:18:29;;;;;;;50.60;27.45;;;;;;;7.39;62.48;100297.97;5107353;28;20398;-79
2021/12/02 05:20:54;;;;;;;50.17;23.67;;;;;;;7.46;62.38;100302.75;5109865;28;20028;-81
2021/12/02 05:23:20;;;;;;;54.15;21.48;;;;;;;7.29;62.42;100310.31;5105241;28;20016;-80
2021/12/02 05:25:46;;;;;;;49.58;19.27;;;;;;;7.12;63.31;100299.00;5094685;28;20533;-82
2021/12/02 05:28:12;;;;;;;57.83;19.65;;;;;;;7.19;63.36;100302.09;5094385;28;20020;-82
2021/12/02 05:30:38;;;;;;;52.47;16.75;;;;;;;7.16;63.25;100288.94;5094172;28;20027;-82
2021/12/02 05:33:03;;;;;;;73.22;16.73;;;;;;;7.39;62.95;100306.88;5094361;28;20061;-82
2021/12/02 05:35:29;;;;;;;64.38;17.63;;;;;;;7.36;62.54;100307.09;5095257;28;20031;-80
2021/12/02 05:37:54;;;;;;;51.28;16.65;;;;;;;7.35;62.39;100297.34;5095095;28;20366;-80
2021/12/02 05:40:20;;;;;;;52.95;15.98;;;;;;;7.35;62.58;100305.38;5094320;28;20020;-82
2021/12/02 05:42:45;;;;;;;75.10;22.23;;;;;;;7.29;62.92;100311.16;5094242;28;20016;-82
2021/12/02 05:45:11;;;;;;;50.92;17.70;;;;;;;7.26;62.86;100295.34;5075725;28;20054;-81
2021/12/02 05:47:36;;;;;;;51.22;14.80;;;;;;;7.57;62.69;100326.91;5093943;28;20020;-82
2021/12/02 05:50:04;;;;;;;60.38;17.23;;;;;;;7.60;62.79;100326.69;5094121;28;20049;-81
2021/12/02 05:52:30;;;;;;;63.78;16.73;;;;;;;7.63;62.68;100326.47;5095237;28;20027;-82
2021/12/02 05:54:57;;;;;;;80.40;17.63;;;;;;;7.70;62.13;100337.56;5094703;28;20028;-82
2021/12/02 05:57:23;;;;;;;72.57;17.92;;;;;;;7.69;61.85;100338.53;5109585;28;20031;-81
2021/12/02 05:59:48;;;;;;;66.47;18.00;;;;;;;7.62;61.96;100326.56;5094201;28;20104;-80
2021/12/02 06:02:14;;;;;;;58.35;18.20;;;;;;;7.62;62.57;100324.75;5094444;28;20027;-82
2021/12/02 06:04:41;;;;;;;106.38;20.67;;;;;;;7.63;62.67;100330.97;5101723;28;20028;-81
2021/12/02 06:07:07;;;;;;;67.03;19.63;;;;;;;7.63;63.35;100334.50;5097299;28;20020;-81
2021/12/02 06:09:33;;;;;;;59.63;17.58;;;;;;;7.75;62.60;100339.91;5091044;28;20044;-82
2021/12/02 06:11:59;;;;;;;90.72;19.13;;;;;;;7.60;62.81;100315.13;5093258;28;20055;-80
2021/12/02 06:14:25;;;;;;;43.17;13.05;;;;;;;7.88;62.75;100343.38;5093436;28;20055;-81
2021/12/02 06:16:50;;;;;;;42.15;16.13;;;;;;;7.88;61.89;100330.00;5092525;28;20112;-81
2021/12/02 06:19:16;;;;;;;118.88;23.52;;;;;;;8.03;62.35;100336.88;5093451;28;20020;-82
2021/12/02 06:21:41;;;;;;;60.10;16.00;;;;;;;7.98;62.07;100323.81;5092781;28;20024;-81
2021/12/02 06:24:08;;;;;;;54.90;16.48;;;;;;;8.18;61.78;100327.66;5093103;28;20490;-81
2021/12/02 06:26:34;;;;;;;57.00;14.68;;;;;;;8.30;62.00;100336.63;5093394;28;20460;-81
2021/12/02 06:29:00;;;;;;;33.72;14.80;;;;;;;8.33;61.24;100323.84;5092828;28;20023;-81
2021/12/02 06:31:25;;;;;;;59.38;18.05;;;;;;;8.39;60.86;100331.41;5092939;28;20024;-81
2021/12/02 06:33:51;;;;;;;28.95;13.07;;;;;;;8.51;61.08;100330.47;5093058;28;20073;-81
2021/12/02 06:36:16;;;;;;;76.13;23.23;;;;;;;8.63;59.69;100329.50;5093054;28;20467;-79
2021/12/02 06:38:42;;;;;;;81.78;22.90;;;;;;;8.68;60.15;100324.63;5093828;28;20409;-82
2021/12/02 06:41:09;;;;;;;51.65;14.82;;;;;;;8.79;59.98;100325.63;5083918;28;20029;-91
2021/12/02 06:43:34;;;;;;;35.13;12.10;;;;;;;8.82;59.76;100320.00;5076449;28;20013;-86
2021/12/02 06:46:00;;;;;;;30.45;12.43;;;;;;;9.00;59.37;100334.66;5072366;28;20028;-86
2021/12/02 06:48:25;;;;;;;24.25;11.32;;;;;;;9.18;59.09;100342.09;5063208;28;20028;-82
2021/12/02 06:50:51;;;;;;;19.35;11.63;;;;;;;9.23;57.77;100328.31;5082750;28;20012;-82
2021/12/02 06:53:17;;;;;;;25.98;12.63;;;;;;;9.46;57.91;100346.06;5089564;28;20024;-86
2021/12/02 06:55:43;;;;;;;32.00;11.77;;;;;;;9.55;57.96;100341.78;5084606;28;20513;-89
2021/12/02 06:58:09;;;;;;;21.33;12.25;;;;;;;9.58;57.00;100331.66;5075889;28;20487;-89
2021/12/02 07:00:35;;;;;;;73.57;36.58;;;;;;;9.69;56.33;100328.94;5074717;28;20118;-90
2021/12/02 07:03:01;;;;;;;34.38;17.90;;;;;;;9.81;56.07;100327.91;5074999;28;20051;-88
2021/12/02 07:05:30;;;;;;;19.33;10.55;;;;;;;9.92;56.16;100332.41;5073152;28;20089;-90
2021/12/02 07:07:56;;;;;;;21.15;11.40;;;;;;;10.05;55.20;100337.59;5073152;28;20024;-89
2021/12/02 07:10:25;;;;;;;39.53;18.17;;;;;;;10.15;54.86;100339.41;5091581;28;20051;-90
2021/12/02 07:12:58;;;;;;;27.60;12.27;;;;;;;10.22;54.94;100331.69;5095288;28;20031;-90
2021/12/02 07:15:41;;;;;;;28.05;9.13;;;;;;;10.34;54.92;100342.25;5095495;28;20016;-93
2021/12/02 07:18:12;;;;;;;58.75;12.85;;;;;;;10.42;54.93;100347.00;5095513;28;20115;-87
2021/12/02 07:20:39;;;;;;;29.58;14.52;;;;;;;10.33;54.84;100310.16;5075770;28;20443;-86
2021/12/02 07:23:05;;;;;;;298.27;19.85;;;;;;;10.48;54.30;100327.66;5094232;28;20024;-84
2021/12/02 07:25:32;;;;;;;20.98;11.02;;;;;;;10.50;54.26;100320.28;5080373;28;20035;-86
2021/12/02 07:27:58;;;;;;;35.80;12.95;;;;;;;10.62;54.08;100338.06;5096604;28;20027;-87
2021/12/02 07:30:24;;;;;;;57.95;18.17;;;;;;;10.59;53.39;100315.97;5100415;28;20027;-86
2021/12/02 07:32:56;;;;;;;31.65;12.65;;;;;;;10.58;52.88;100314.28;5101630;28;20103;-84
2021/12/02 07:35:22;;;;;;;20.77;10.88;;;;;;;10.72;52.84;100322.00;5100848;28;20027;-85
2021/12/02 07:37:53;;;;;;;26.23;6.88;;;;;;;10.62;52.71;100296.88;5098923;28;20100;-82
2021/12/02 07:40:20;;;;;;;42.75;22.17;;;;;;;10.79;52.63;100318.63;5093886;28;20051;-90
2021/12/02 07:42:48;;;;;;;25.10;11.05;;;;;;;10.83;52.38;100312.00;5077716;28;20020;-80
2021/12/02 07:45:14;;;;;;;16.23;6.95;;;;;;;10.90;52.41;100317.69;5077089;28;20065;-82
2021/12/02 07:47:41;;;;;;;12.98;6.57;;;;;;;10.97;51.89;100318.00;5071131;28;20024;-82
2021/12/02 07:50:10;;;;;;;12.43;6.63;;;;;;;11.02;52.44;100319.31;5096117;28;20020;-84
2021/12/02 07:52:40;;;;;;;13.93;6.95;;;;;;;10.93;51.40;100296.75;5096760;28;20020;-83
2021/12/02 07:55:07;;;;;;;19.90;7.35;;;;;;;11.15;51.36;100325.31;5096622;28;20024;-84
2021/12/02 07:57:34;;;;;;;11.75;5.47;;;;;;;11.19;51.76;100315.97;5096663;28;20386;-89
2021/12/02 08:00:00;;;;;;;21.45;10.75;;;;;;;11.17;51.16;100304.50;5096222;28;20027;-88
2021/12/02 08:02:32;;;;;;;29.00;8.75;;;;;;;11.27;50.91;100308.06;5096790;28;20032;-91
2021/12/02 08:04:58;;;;;;;18.70;6.95;;;;;;;11.41;50.48;100310.38;5082121;28;20023;-87
2021/12/02 08:07:23;;;;;;;15.43;5.78;;;;;;;11.48;50.15;100299.91;5098172;28;20484;-83
2021/12/02 08:09:49;;;;;;;21.00;8.88;;;;;;;11.68;50.39;100312.41;5097035;28;20101;-86
2021/12/02 08:12:14;;;;;;;17.50;7.15;;;;;;;11.76;49.85;100309.91;5098477;28;20339;-86
2021/12/02 08:14:40;;;;;;;14.73;6.30;;;;;;;11.79;49.41;100293.47;5099807;28;20047;-95
2021/12/02 08:17:05;;;;;;;16.38;5.82;;;;;;;11.68;49.34;100263.09;5091135;28;20035;-89
2021/12/02 08:19:31;;;;;;;18.15;6.78;;;;;;;11.95;49.54;100298.31;5100035;28;20035;-87
2021/12/02 08:21:57;;;;;;;20.35;7.28;;;;;;;12.16;49.34;100314.31;5076910;28;20494;-85
2021/12/02 08:24:23;;;;;;;11.35;5.65;;;;;;;12.30;49.07;100313.88;5085959;28;20021;-85
2021/12/02 08:26:49;;;;;;;8.80;5.35;;;;;;;12.38;48.52;100312.16;5089077;28;20058;-90
2021/12/02 08:29:15;;;;;;;10.95;5.07;;;;;;;12.47;48.70;100310.47;5091129;28;20028;-85
2021/12/02 08:31:41;;;;;;;12.70;6.50;;;;;;;12.60;48.73;100304.75;5071285;28;20028;-94
2021/12/02 08:34:07;;;;;;;15.10;6.43;;;;;;;12.66;48.89;100299.59;5062313;28;20032;-81
2021/12/02 08:36:42;;;;;;;15.85;7.07;;;;;;;12.74;48.66;100296.19;5076608;28;20468;-77
2021/12/02 08:39:11;;;;;;;10.10;5.80;;;;;;;12.79;48.67;100299.28;5077772;28;20028;-86
2021/12/02 08:41:43;;;;;;;24.38;5.97;;;;;;;12.83;48.87;100290.78;5075388;28;20470;-85
2021/12/02 08:44:08;;;;;;;15.47;6.07;;;;;;;12.95;48.95;100284.19;5076454;28;20020;-92
2021/12/02 08:46:34;;;;;;;12.80;5.43;;;;;;;12.91;48.78;100271.97;5060588;28;20050;-91
2021/12/02 08:48:59;;;;;;;8.98;5.32;;;;;;;13.09;49.04;100286.41;5084589;28;20029;-88
2021/12/02 08:51:24;;;;;;;13.88;5.55;;;;;;;13.21;48.92;100284.38;5086020;28;20048;-91
2021/12/02 08:53:50;;;;;;;15.68;5.80;;;;;;;13.24;48.80;100267.03;5064432;28;20088;-84
2021/12/02 08:56:15;;;;;;;23.60;6.47;;;;;;;13.34;48.54;100262.41;5057180;28;20029;-85
2021/12/02 08:58:41;;;;;;;23.10;5.47;;;;;;;13.49;48.65;100271.69;5077415;28;20390;-82
2021/12/02 09:01:06;;;;;;;12.98;4.70;;;;;;;13.57;48.76;100264.56;5093729;28;20028;-84
2021/12/02 09:03:33;;;;;;;15.18;5.88;;;;;;;13.72;48.43;100262.16;5062539;28;20024;-82
2021/12/02 09:06:00;;;;;;;31.15;7.38;;;;;;;13.83;48.48;100248.41;5094884;28;20016;-85
2021/12/02 09:08:26;;;;;;;19.48;5.63;;;;;;;13.80;47.79;100246.00;5096334;28;20047;-83
2021/12/02 09:10:51;;;;;;;12.52;4.72;;;;;;;13.84;47.50;100233.91;5095398;28;20099;-86
2021/12/02 09:13:17;;;;;;;32.85;6.40;;;;;;;13.95;47.64;100244.47;5096611;28;20032;-85
2021/12/02 09:15:43;;;;;;;11.23;4.70;;;;;;;14.00;47.68;100247.56;5095556;28;20027;-84
2021/12/02 09:18:09;;;;;;;14.13;5.50;;;;;;;14.04;47.32;100239.97;5095316;28;20023;-84
2021/12/02 09:20:35;;;;;;;19.35;6.25;;;;;;;14.12;47.55;100240.06;5095382;28;20024;-85
2021/12/02 09:23:02;;;;;;;27.80;6.15;;;;;;;14.19;47.67;100238.41;5094535;28;20020;-84
2021/12/02 09:25:28;;;;;;;14.48;6.65;;;;;;;14.21;47.41;100240.97;5095512;28;20107;-86
2021/12/02 09:27:53;;;;;;;22.02;6.10;;;;;;;14.24;47.35;100224.41;5109805;28;20058;-84
2021/12/02 09:30:19;;;;;;;15.43;5.10;;;;;;;14.32;47.49;100221.75;5079090;28;20051;-83
2021/12/02 09:32:45;;;;;;;15.10;6.68;;;;;;;14.34;47.45;100203.56;5074034;28;20078;-82
2021/12/02 09:35:14;;;;;;;34.08;7.45;;;;;;;14.48;47.39;100202.97;5084673;28;20030;-79
2021/12/02 09:37:40;;;;;;;19.35;8.98;;;;;;;14.57;46.99;100202.84;5093415;28;20091;-80
2021/12/02 09:40:08;;;;;;;18.88;7.32;;;;;;;14.64;47.00;100195.81;5093407;28;20036;-79
2021/12/02 09:42:33;;;;;;;15.18;6.65;;;;;;;14.68;46.35;100191.75;5093672;28;20023;-81
2021/12/02 09:45:00;;;;;;;18.40;6.70;;;;;;;14.70;46.49;100188.88;5093449;28;20012;-80
2021/12/02 09:47:29;;;;;;;19.92;5.65;;;;;;;14.78;46.60;100185.34;5093175;28;20489;-79
2021/12/02 09:49:55;;;;;;;11.55;5.78;;;;;;;14.84;46.27;100185.56;5108696;28;20111;-80
2021/12/02 09:52:29;;;;;;;8.27;4.40;;;;;;;14.82;45.72;100184.88;5093042;28;20027;-81
2021/12/02 09:55:06;;;;;;;13.88;5.93;;;;;;;14.88;45.82;100180.66;5094424;28;20470;-84
2021/12/02 09:57:36;;;;;;;8.85;3.85;;;;;;;14.92;45.54;100166.63;5059157;28;20054;-87
2021/12/02 10:00:08;;;;;;;12.70;4.57;;;;;;;14.86;45.23;100161.03;5096049;28;20023;-82
2021/12/02 10:02:41;;;;;;;8.68;4.00;;;;;;;14.89;45.46;100155.28;5103679;28;20084;-84
2021/12/02 10:05:11;;;;;;;14.98;4.50;;;;;;;14.82;45.17;100155.09;5101874;28;20017;-84
2021/12/02 10:07:57;;;;;;;8.50;3.78;;;;;;;14.78;45.42;100163.69;5101592;28;20035;-83
2021/12/02 10:10:32;;;;;;;8.27;3.80;;;;;;;14.65;45.25;100137.06;5096748;28;20064;-83
2021/12/02 10:16:29;;;;;;;5.93;3.50;;;;;;;14.87;44.93;100160.00;5095866;28;20035;-86
2021/12/02 10:19:02;;;;;;;11.20;3.78;;;;;;;14.90;44.79;100147.00;5046203;28;20041;-84
2021/12/02 10:21:39;;;;;;;6.95;2.80;;;;;;;15.03;44.29;100155.50;5052970;28;20044;-85
2021/12/02 10:24:11;;;;;;;7.32;3.45;;;;;;;15.08;44.14;100147.72;5053345;28;20029;-87
2021/12/02 10:26:49;;;;;;;16.23;4.68;;;;;;;15.18;44.08;100140.31;5087218;28;20020;-80
2021/12/02 10:29:20;;;;;;;12.13;5.25;;;;;;;15.23;43.88;100132.53;5091833;28;20471;-79
2021/12/02 10:31:47;;;;;;;6.82;3.25;;;;;;;15.34;43.44;100127.81;5093225;28;20054;-79
2021/12/02 10:34:17;;;;;;;9.07;3.72;;;;;;;15.44;43.38;100123.09;5084606;28;20032;-80
2021/12/02 10:36:45;;;;;;;7.78;3.80;;;;;;;15.49;43.40;100113.47;5071848;28;20067;-79
2021/12/02 10:39:22;;;;;;;18.15;4.70;;;;;;;15.55;43.23;100098.38;5072053;28;20029;-79
2021/12/02 10:42:02;;;;;;;8.30;4.03;;;;;;;15.64;42.74;100102.78;5086598;28;20042;-79
2021/12/02 10:44:33;;;;;;;5.43;3.38;;;;;;;15.68;42.01;100099.56;5092095;28;20023;-81
2021/12/02 10:47:08;;;;;;;101.68;11.75;;;;;;;15.73;42.56;100091.75;5092317;28;20039;-81
2021/12/02 10:49:35;;;;;;;12.05;4.50;;;;;;;15.81;42.32;100093.59;5093477;28;20471;-82
2021/12/02 10:52:04;;;;;;;12.82;5.75;;;;;;;15.77;42.27;100092.28;5079349;28;20039;-82
2021/12/02 10:54:35;;;;;;;16.65;5.93;;;;;;;15.87;42.29;100087.50;5072830;28;20031;-85
2021/12/02 10:57:27;;;;;;;19.98;5.40;;;;;;;16.06;42.21;100081.69;5072877;28;20429;-82
2021/12/02 10:59:54;;;;;;;9.25;4.70;;;;;;;16.14;41.19;100061.84;5072563;28;20141;-82
2021/12/02 11:02:29;;;;;;;12.32;5.28;;;;;;;16.47;40.51;100068.00;5074944;28;20036;-84
2021/12/02 11:04:58;;;;;;;18.90;6.63;;;;;;;16.65;40.28;100077.63;5059226;28;20100;-82
2021/12/02 11:07:28;;;;;;;17.00;5.72;;;;;;;16.80;39.66;100075.00;5077711;28;20117;-80
2021/12/02 11:09:56;;;;;;;16.77;5.38;;;;;;;16.84;39.14;100066.34;5075062;28;20052;-81
2021/12/02 11:12:25;;;;;;;8.73;3.60;;;;;;;16.92;38.78;100061.84;5076485;28;20024;-81
2021/12/02 11:15:00;;;;;;;13.48;4.05;;;;;;;16.98;39.35;100061.97;5076623;28;20060;-82
2021/12/02 11:17:30;;;;;;;8.55;4.88;;;;;;;16.95;38.62;100056.91;5076737;28;20017;-80
2021/12/02 11:19:57;;;;;;;11.82;5.10;;;;;;;16.97;38.96;100064.91;5075079;28;20091;-80
2021/12/02 11:22:25;;;;;;;9.52;4.22;;;;;;;17.00;39.11;100064.53;5057205;28;20393;-81
2021/12/02 11:24:51;;;;;;;9.10;4.20;;;;;;;17.02;39.15;100063.31;5075688;28;20048;-80
2021/12/02 11:27:17;;;;;;;11.48;3.67;;;;;;;17.04;38.71;100058.53;5075770;28;20023;-82
2021/12/02 11:30:19;;;;;;;8.73;3.95;;;;;;;17.06;38.87;100059.22;5075984;28;20686;-85
2021/12/02 11:32:49;;;;;;;8.82;3.20;;;;;;;17.18;38.91;100057.78;5079667;28;20343;-78
2021/12/02 11:35:23;;;;;;;11.63;4.63;;;;;;;17.23;38.63;100055.38;5078050;28;20045;-80
2021/12/02 11:38:13;;;;;;;10.93;4.53;;;;;;;17.42;37.43;100062.19;5077680;28;20457;-82
2021/12/02 11:40:45;;;;;;;9.98;5.68;;;;;;;17.34;37.05;100041.34;5091723;28;20020;-83